createdAt,value
2019-05-15T00:00:40.253Z,8.70
2019-05-15T00:03:10.281Z,8.70
2019-05-15T00:05:40.377Z,8.60
2019-05-15T00:08:10.864Z,8.70
2019-05-15T00:10:40.990Z,8.60
2019-05-15T00:13:10.991Z,8.60
2019-05-15T00:15:41.134Z,8.70
2019-05-15T00:18:11.229Z,8.60
2019-05-15T00:20:41.143Z,8.60
2019-05-15T00:23:11.103Z,8.70
2019-05-15T00:25:41.208Z,8.70
2019-05-15T00:28:11.167Z,8.70
2019-05-15T00:30:41.437Z,8.70
2019-05-15T00:33:11.481Z,8.70
2019-05-15T00:35:41.586Z,8.70
2019-05-15T00:38:11.641Z,8.70
2019-05-15T00:40:41.763Z,8.70
2019-05-15T00:43:11.815Z,8.70
2019-05-15T00:45:44.434Z,8.70
2019-05-15T00:48:13.837Z,8.70
2019-05-15T00:50:43.991Z,8.70
2019-05-15T00:53:14.181Z,8.70
2019-05-15T00:55:44.186Z,8.70
2019-05-15T00:58:14.263Z,8.70
2019-05-15T01:00:45.240Z,8.60
2019-05-15T01:03:15.214Z,8.60
2019-05-15T01:05:45.347Z,8.60
2019-05-15T01:08:15.316Z,8.60
2019-05-15T01:10:45.349Z,8.60
2019-05-15T01:13:15.454Z,8.50
2019-05-15T01:15:45.400Z,8.40
2019-05-15T01:18:15.326Z,8.50
2019-05-15T01:20:45.484Z,8.50
2019-05-15T01:23:15.448Z,8.50
2019-05-15T01:25:45.386Z,8.50
2019-05-15T01:28:15.435Z,8.50
2019-05-15T01:30:45.498Z,8.60
2019-05-15T01:33:15.435Z,8.60
2019-05-15T01:35:45.444Z,8.60
2019-05-15T01:38:15.497Z,8.50
2019-05-15T01:40:45.550Z,8.60
2019-05-15T01:43:15.495Z,8.60
2019-05-15T01:45:45.423Z,8.70
2019-05-15T01:48:15.359Z,8.60
2019-05-15T01:50:45.349Z,8.60
2019-05-15T01:53:15.437Z,8.60
2019-05-15T01:55:45.470Z,8.60
2019-05-15T01:58:18.267Z,8.60
2019-05-15T02:00:48.388Z,8.50
2019-05-15T02:03:18.652Z,8.60
2019-05-15T02:05:48.594Z,8.60
2019-05-15T02:08:19.230Z,8.60
2019-05-15T02:10:49.611Z,8.60
2019-05-15T02:13:20.481Z,8.60
2019-05-15T02:15:51.623Z,8.70
2019-05-15T02:18:21.533Z,8.70
2019-05-15T02:20:51.675Z,8.60
2019-05-15T02:23:21.619Z,8.60
2019-05-15T02:25:51.586Z,8.60
2019-05-15T02:28:21.632Z,8.60
2019-05-15T02:30:51.661Z,8.70
2019-05-15T02:33:21.713Z,8.60
2019-05-15T02:35:51.770Z,8.60
2019-05-15T02:38:21.853Z,8.60
2019-05-15T02:40:51.793Z,8.70
2019-05-15T02:43:21.735Z,8.70
2019-05-15T02:45:51.786Z,8.70
2019-05-15T02:48:22.091Z,8.70
2019-05-15T02:50:52.095Z,8.80
2019-05-15T02:53:22.036Z,8.70
2019-05-15T02:55:51.971Z,8.70
2019-05-15T02:58:22.019Z,8.70
2019-05-15T03:00:53.681Z,8.70
2019-05-15T03:03:23.798Z,8.70
2019-05-15T03:05:53.822Z,8.70
2019-05-15T03:08:23.865Z,8.70
2019-05-15T03:10:53.846Z,8.70
2019-05-15T03:13:24.629Z,8.70
2019-05-15T03:15:54.703Z,8.70
2019-05-15T03:18:24.669Z,8.70
2019-05-15T03:20:54.698Z,8.70
2019-05-15T03:23:24.797Z,8.70
2019-05-15T03:25:54.814Z,8.70
2019-05-15T03:28:24.755Z,8.70
2019-05-15T03:33:29.696Z,8.70
2019-05-15T03:36:02.748Z,8.80
2019-05-15T03:38:31.298Z,8.80
2019-05-15T03:41:01.426Z,8.70
2019-05-15T03:43:31.439Z,8.70
2019-05-15T03:46:02.039Z,8.70
2019-05-15T03:48:32.087Z,8.70
2019-05-15T03:51:02.032Z,8.70
2019-05-15T03:53:31.993Z,8.80
2019-05-15T03:56:02.875Z,8.80
2019-05-15T03:58:32.861Z,8.80
2019-05-15T04:01:02.850Z,8.80
2019-05-15T04:03:32.830Z,8.80
2019-05-15T04:06:02.894Z,8.80
2019-05-15T04:08:32.921Z,8.90
2019-05-15T04:11:02.914Z,8.90
2019-05-15T04:13:33.649Z,8.90
2019-05-15T04:16:03.741Z,9.00
2019-05-15T04:18:35.274Z,9.00
2019-05-15T04:21:05.397Z,9.00
2019-05-15T04:23:38.821Z,9.00
2019-05-15T04:26:09.260Z,8.90
2019-05-15T04:28:41.923Z,9.00
2019-05-15T04:31:12.381Z,9.00
2019-05-15T04:33:42.386Z,9.10
2019-05-15T04:36:12.304Z,9.10
2019-05-15T04:38:42.329Z,9.20
2019-05-15T04:41:12.331Z,9.30
2019-05-15T04:43:45.006Z,9.30
2019-05-15T04:46:14.405Z,9.30
2019-05-15T04:48:44.516Z,9.30
2019-05-15T04:51:14.580Z,9.40
2019-05-15T04:53:44.693Z,9.40
2019-05-15T04:56:14.656Z,9.40
2019-05-15T04:58:44.660Z,9.40
2019-05-15T05:01:14.751Z,9.30
2019-05-15T05:03:44.677Z,9.40
2019-05-15T05:06:14.651Z,9.40
2019-05-15T05:08:44.814Z,9.50
2019-05-15T05:11:15.206Z,9.60
2019-05-15T05:13:45.366Z,9.50
2019-05-15T05:16:15.576Z,9.70
2019-05-15T05:18:48.583Z,9.70
2019-05-15T05:21:18.377Z,9.70
2019-05-15T05:23:48.658Z,9.80
2019-05-15T05:26:18.811Z,9.90
2019-05-15T05:28:49.942Z,9.80
2019-05-15T05:31:20.015Z,9.90
2019-05-15T05:33:50.421Z,9.80
2019-05-15T05:36:20.440Z,9.70
2019-05-15T05:38:51.435Z,9.80
2019-05-15T05:41:21.345Z,9.80
2019-05-15T05:43:51.366Z,9.70
2019-05-15T05:46:21.406Z,9.70
2019-05-15T05:48:51.432Z,9.60
2019-05-15T05:51:21.493Z,9.70
2019-05-15T05:53:51.552Z,9.50
2019-05-15T05:56:21.507Z,9.80
2019-05-15T05:58:51.512Z,10.00
2019-05-15T06:01:21.514Z,10.10
2019-05-15T06:03:51.498Z,10.20
2019-05-15T06:06:21.491Z,10.30
2019-05-15T06:08:51.553Z,10.30
2019-05-15T06:11:21.544Z,10.20
2019-05-15T06:13:52.643Z,10.30
2019-05-15T06:16:22.792Z,10.20
2019-05-15T06:18:52.759Z,10.20
2019-05-15T06:21:22.751Z,10.80
2019-05-15T06:23:56.068Z,10.50
2019-05-15T06:26:24.607Z,10.40
2019-05-15T06:28:54.588Z,10.30
2019-05-15T06:31:24.617Z,10.30
2019-05-15T06:33:54.639Z,10.30
2019-05-15T06:36:24.669Z,10.40
2019-05-15T06:38:54.757Z,10.30
2019-05-15T06:41:24.686Z,10.50
2019-05-15T06:43:54.725Z,10.60
2019-05-15T06:46:28.193Z,10.80
2019-05-15T06:48:58.259Z,10.60
2019-05-15T06:51:28.920Z,10.60
2019-05-15T06:53:59.063Z,10.70
2019-05-15T06:56:29.065Z,10.80
2019-05-15T06:58:59.125Z,10.80
2019-05-15T07:01:29.568Z,11.00
2019-05-15T07:04:00.752Z,11.00
2019-05-15T07:06:30.832Z,11.10
2019-05-15T07:09:00.862Z,11.10
2019-05-15T07:11:32.563Z,11.20
2019-05-15T07:14:03.410Z,11.00
2019-05-15T07:16:33.615Z,11.00
2019-05-15T07:19:03.570Z,11.10
2019-05-15T07:21:33.523Z,11.10
2019-05-15T07:24:04.626Z,11.10
2019-05-15T07:26:34.539Z,11.10
2019-05-15T07:29:04.515Z,11.10
2019-05-15T07:31:34.487Z,11.00
2019-05-15T07:34:04.606Z,10.90
2019-05-15T07:36:34.617Z,10.90
2019-05-15T07:39:08.389Z,10.90
2019-05-15T07:41:39.161Z,10.90
2019-05-15T07:44:09.501Z,10.80
2019-05-15T07:46:39.488Z,10.90
2019-05-15T07:49:09.493Z,10.80
2019-05-15T07:51:39.514Z,10.70
2019-05-15T07:54:09.473Z,10.70
2019-05-15T07:56:39.478Z,10.70
2019-05-15T07:59:09.468Z,10.70
2019-05-15T08:01:39.488Z,10.70
2019-05-15T08:04:25.231Z,10.70
2019-05-15T08:06:43.934Z,10.70
2019-05-15T08:09:13.962Z,10.70
2019-05-15T08:11:44.068Z,10.70
2019-05-15T08:14:14.792Z,10.60
2019-05-15T08:16:44.757Z,10.70
2019-05-15T08:19:21.887Z,10.70
2019-05-15T08:21:52.131Z,10.80
2019-05-15T08:24:22.183Z,11.00
2019-05-15T08:26:52.183Z,11.00
2019-05-15T08:29:22.111Z,11.20
2019-05-15T08:31:53.147Z,11.30
2019-05-15T08:34:23.104Z,11.20
2019-05-15T08:36:53.248Z,11.30
2019-05-15T08:39:23.268Z,11.00
2019-05-15T08:41:53.260Z,11.30
2019-05-15T08:44:23.328Z,11.20
2019-05-15T08:46:53.271Z,11.40
2019-05-15T08:49:23.262Z,11.40
2019-05-15T08:51:53.187Z,11.30
2019-05-15T08:54:23.231Z,11.50
2019-05-15T08:56:53.252Z,11.20
2019-05-15T08:59:29.515Z,11.30
2019-05-15T09:01:59.879Z,11.40
2019-05-15T09:04:34.470Z,11.50
2019-05-15T09:07:01.658Z,11.50
2019-05-15T09:09:31.657Z,11.50
2019-05-15T09:12:01.586Z,11.60
2019-05-15T09:14:33.588Z,11.40
2019-05-15T09:17:03.640Z,11.40
2019-05-15T09:19:33.608Z,11.40
2019-05-15T09:22:03.741Z,11.40
2019-05-15T09:24:33.848Z,11.60
2019-05-15T09:27:03.881Z,11.50
2019-05-15T09:29:33.834Z,11.50
2019-05-15T09:32:04.300Z,11.60
2019-05-15T09:34:47.790Z,11.60
2019-05-15T09:37:08.432Z,11.60
2019-05-15T09:39:39.262Z,11.60
2019-05-15T09:42:09.208Z,11.60
2019-05-15T09:44:39.290Z,11.60
2019-05-15T09:47:09.381Z,11.70
2019-05-15T09:49:39.351Z,11.80
2019-05-15T09:52:09.298Z,11.80
2019-05-15T09:54:39.223Z,11.90
2019-05-15T09:57:10.978Z,11.90
2019-05-15T09:59:41.194Z,11.80
2019-05-15T10:02:11.436Z,11.80
2019-05-15T10:04:41.515Z,12.30
2019-05-15T10:07:11.706Z,12.10
2019-05-15T10:09:41.665Z,12.10
2019-05-15T10:12:11.766Z,12.20
2019-05-15T10:14:42.050Z,12.20
2019-05-15T10:17:12.459Z,12.20
2019-05-15T10:19:42.493Z,12.10
2019-05-15T10:22:12.604Z,12.10
2019-05-15T10:24:42.634Z,12.10
2019-05-15T10:27:12.661Z,12.10
2019-05-15T10:29:42.706Z,12.20
2019-05-15T10:32:12.864Z,12.20
2019-05-15T10:34:42.847Z,12.10
2019-05-15T10:37:12.832Z,12.30
2019-05-15T10:39:42.747Z,12.10
2019-05-15T10:42:13.036Z,12.00
2019-05-15T10:44:44.034Z,12.10
2019-05-15T10:47:14.089Z,12.30
2019-05-15T10:49:44.087Z,12.10
2019-05-15T10:52:14.158Z,12.30
2019-05-15T10:54:44.109Z,12.40
2019-05-15T10:57:18.856Z,12.40
2019-05-15T10:59:49.082Z,12.40
2019-05-15T11:02:19.365Z,12.40
2019-05-15T11:04:49.723Z,12.40
2019-05-15T11:07:20.158Z,12.50
2019-05-15T11:09:50.156Z,12.60
2019-05-15T11:12:21.929Z,12.70
2019-05-15T11:14:52.290Z,12.70
2019-05-15T11:17:22.264Z,12.80
2019-05-15T11:19:52.278Z,12.80
2019-05-15T11:22:22.436Z,12.80
2019-05-15T11:24:53.111Z,12.90
2019-05-15T11:27:23.318Z,12.90
2019-05-15T11:29:53.270Z,13.00
2019-05-15T11:32:23.312Z,12.90
2019-05-15T11:34:53.439Z,13.00
2019-05-15T11:37:23.761Z,12.90
2019-05-15T11:39:53.987Z,12.90
2019-05-15T11:42:24.229Z,12.90
2019-05-15T11:44:54.446Z,12.90
2019-05-15T11:47:24.552Z,12.90
2019-05-15T11:49:54.475Z,13.10
2019-05-15T11:52:24.725Z,13.30
2019-05-15T11:54:54.661Z,13.40
2019-05-15T11:59:59.432Z,13.50
2019-05-15T12:02:29.307Z,13.50
2019-05-15T12:04:59.283Z,13.50
2019-05-15T12:07:29.301Z,13.50
2019-05-15T12:09:59.318Z,13.50
2019-05-15T12:12:31.957Z,13.60
2019-05-15T12:15:01.179Z,13.50
2019-05-15T12:17:34.080Z,13.50
2019-05-15T12:20:06.596Z,13.40
2019-05-15T12:22:34.654Z,13.30
2019-05-15T12:25:09.633Z,13.20
2019-05-15T12:27:39.994Z,13.30
2019-05-15T12:30:12.392Z,13.30
2019-05-15T12:32:42.403Z,13.20
2019-05-15T12:35:12.480Z,13.10
2019-05-15T12:37:42.602Z,13.10
2019-05-15T13:00:29.916Z,13.00
2019-05-15T13:03:00.106Z,12.90
2019-05-15T13:05:32.463Z,13.00
2019-05-15T13:10:31.615Z,12.90
2019-05-15T13:13:05.359Z,12.90
2019-05-15T13:15:34.061Z,13.40
2019-05-15T13:18:12.711Z,13.10
2019-05-15T13:20:43.387Z,12.30
2019-05-15T13:25:43.134Z,12.90
2019-05-15T13:28:13.103Z,12.90
2019-05-15T13:30:43.395Z,12.80
2019-05-15T13:33:13.756Z,12.80
2019-05-15T13:35:45.622Z,12.80
2019-05-15T13:38:15.388Z,12.80
2019-05-15T13:40:45.341Z,12.80
2019-05-15T13:43:18.641Z,12.90
2019-05-15T13:45:49.234Z,12.70
2019-05-15T13:48:19.977Z,12.70
2019-05-15T13:50:51.460Z,13.20
2019-05-15T13:53:21.503Z,13.00
2019-05-15T13:55:51.549Z,12.80
2019-05-15T13:58:21.579Z,12.90
2019-05-15T14:00:51.554Z,12.90
2019-05-15T14:03:21.939Z,12.90
2019-05-15T14:05:52.081Z,13.00
2019-05-15T14:10:51.967Z,13.10
2019-05-15T14:13:22.031Z,13.10
2019-05-15T14:15:53.608Z,13.30
2019-05-15T14:18:23.626Z,13.30
2019-05-15T14:20:58.484Z,13.30
2019-05-15T14:23:29.681Z,13.90
2019-05-15T14:26:13.072Z,13.40
2019-05-15T14:28:31.401Z,13.40
2019-05-15T14:31:01.440Z,13.40
2019-05-15T14:33:31.630Z,13.40
2019-05-15T14:36:01.987Z,13.50
2019-05-15T14:38:32.026Z,13.50
2019-05-15T14:41:02.042Z,13.40
2019-05-15T14:43:32.022Z,13.30
2019-05-15T14:46:02.239Z,13.30
2019-05-15T14:48:32.250Z,13.20
2019-05-15T14:51:02.302Z,13.20
2019-05-15T14:53:32.355Z,13.30
2019-05-15T14:56:02.414Z,13.30
2019-05-15T14:58:32.409Z,13.10
2019-05-15T15:01:04.050Z,13.10
2019-05-15T15:03:34.391Z,13.10
2019-05-15T15:06:04.818Z,13.10
2019-05-15T15:08:35.034Z,12.90
2019-05-15T15:11:05.281Z,12.90
2019-05-15T15:13:35.381Z,13.00
2019-05-15T15:16:08.439Z,12.90
2019-05-15T15:18:38.620Z,12.80
2019-05-15T15:21:09.960Z,12.90
2019-05-15T15:23:40.033Z,12.90
2019-05-15T15:26:10.256Z,12.90
2019-05-15T15:28:40.433Z,12.90
2019-05-15T15:31:10.483Z,12.90
2019-05-15T15:33:40.531Z,12.60
2019-05-15T15:36:10.737Z,13.30
2019-05-15T15:38:43.899Z,13.00
2019-05-15T15:41:12.511Z,13.90
2019-05-15T15:43:42.523Z,12.90
2019-05-15T15:46:12.601Z,13.00
2019-05-15T15:48:42.650Z,13.10
2019-05-15T15:51:12.697Z,14.20
2019-05-15T15:53:43.067Z,12.60
2019-05-15T15:58:42.646Z,12.60
2019-05-15T16:01:12.616Z,12.60
2019-05-15T16:03:42.657Z,12.60
2019-05-15T16:06:12.655Z,12.70
2019-05-15T16:08:53.126Z,13.30
2019-05-15T16:11:14.549Z,12.30
2019-05-15T16:18:49.130Z,12.50
2019-05-15T16:21:19.498Z,12.60
2019-05-15T16:23:49.599Z,12.20
2019-05-15T16:26:19.687Z,12.10
2019-05-15T16:28:49.739Z,12.50
2019-05-15T16:31:19.807Z,12.90
2019-05-15T16:39:03.705Z,12.60
2019-05-15T16:41:21.170Z,12.90
2019-05-15T16:43:51.232Z,12.70
2019-05-15T16:46:24.186Z,11.90
2019-05-15T16:51:22.482Z,11.80
2019-05-15T16:53:52.721Z,12.30
2019-05-15T17:01:21.924Z,12.30
2019-05-15T17:03:51.946Z,12.20
2019-05-15T17:06:21.971Z,12.20
2019-05-15T17:08:51.973Z,12.10
2019-05-15T17:11:22.155Z,12.20
2019-05-15T17:13:52.183Z,12.20
2019-05-15T17:16:22.930Z,12.20
2019-05-15T17:18:53.022Z,12.20
2019-05-15T17:21:23.030Z,12.20
2019-05-15T17:23:52.987Z,12.20
2019-05-15T17:28:52.497Z,12.20
2019-05-15T17:31:22.532Z,12.20
2019-05-15T17:38:52.099Z,12.20
2019-05-15T17:41:22.274Z,12.20
2019-05-15T17:43:52.420Z,14.10
2019-05-15T17:46:22.474Z,12.20
2019-05-15T17:48:55.470Z,12.00
2019-05-15T17:51:24.391Z,11.90
2019-05-15T17:53:54.525Z,11.90
2019-05-15T17:56:24.563Z,12.00
2019-05-15T17:58:54.705Z,12.00
2019-05-15T18:01:24.735Z,12.10
2019-05-15T18:03:54.736Z,11.80
2019-05-15T18:06:24.733Z,11.60
2019-05-15T18:08:54.676Z,12.60
2019-05-15T18:14:00.602Z,12.10
2019-05-15T18:16:31.413Z,12.10
2019-05-15T18:19:03.376Z,12.10
2019-05-15T18:24:03.210Z,12.00
2019-05-15T18:26:33.265Z,12.00
2019-05-15T18:29:03.254Z,11.90
2019-05-15T18:31:33.480Z,11.90
2019-05-15T18:39:03.292Z,11.90
2019-05-15T18:41:34.176Z,11.80
2019-05-15T18:44:04.163Z,11.90
2019-05-15T18:46:34.198Z,11.80
2019-05-15T18:49:04.926Z,11.70
2019-05-15T18:51:34.982Z,11.70
2019-05-15T18:54:05.413Z,11.60
2019-05-15T18:56:35.445Z,12.60
2019-05-15T18:59:05.538Z,11.70
2019-05-15T19:06:38.469Z,11.70
2019-05-15T19:09:09.129Z,11.80
2019-05-15T19:11:39.148Z,11.00
2019-05-15T19:14:09.182Z,11.70
2019-05-15T19:16:40.000Z,11.80
2019-05-15T19:24:09.665Z,12.20
2019-05-15T19:26:39.623Z,11.80
2019-05-15T19:29:09.639Z,11.60
2019-05-15T19:31:39.738Z,11.60
2019-05-15T19:34:10.954Z,11.70
2019-05-15T19:39:10.600Z,12.10
2019-05-15T19:44:10.200Z,13.00
2019-05-15T19:46:40.213Z,11.70
2019-05-15T19:49:10.711Z,11.70
2019-05-15T19:51:40.971Z,11.70
2019-05-15T19:54:11.088Z,10.90
2019-05-15T19:56:41.114Z,12.50
2019-05-15T20:01:40.854Z,11.70
2019-05-15T20:06:41.202Z,11.50
2019-05-15T20:09:11.235Z,11.60
2019-05-15T20:11:41.312Z,11.60
2019-05-15T20:14:11.348Z,11.60
2019-05-15T20:16:42.371Z,11.60
2019-05-15T20:19:12.420Z,11.40
2019-05-15T20:21:42.663Z,11.40
2019-05-15T20:24:13.661Z,11.40
2019-05-15T20:26:43.700Z,11.50
2019-05-15T20:29:14.975Z,11.50
2019-05-15T20:31:44.934Z,11.60
2019-05-15T20:34:14.928Z,11.50
2019-05-15T20:36:45.267Z,11.40
2019-05-15T20:39:15.286Z,11.40
2019-05-15T20:41:45.338Z,11.40
2019-05-15T20:44:15.390Z,11.40
2019-05-15T20:46:48.367Z,11.40
2019-05-15T20:49:17.911Z,11.30
2019-05-15T20:51:48.939Z,11.40
2019-05-15T20:54:19.075Z,11.30
2019-05-15T20:56:49.321Z,11.30
2019-05-15T20:59:19.459Z,11.30
2019-05-15T21:01:50.910Z,11.30
2019-05-15T21:04:23.828Z,11.30
2019-05-15T21:06:52.874Z,11.30
2019-05-15T21:09:22.889Z,11.30
2019-05-15T21:11:53.050Z,11.30
2019-05-15T21:14:24.297Z,11.20
2019-05-15T21:16:55.268Z,11.10
2019-05-15T21:19:25.199Z,11.10
2019-05-15T21:21:55.591Z,11.10
2019-05-15T21:24:25.714Z,11.20
2019-05-15T21:26:58.053Z,11.20
2019-05-15T21:29:27.308Z,11.10
2019-05-15T21:31:58.008Z,11.20
2019-05-15T21:34:36.892Z,11.20
2019-05-15T21:36:59.847Z,11.20
2019-05-15T21:39:30.283Z,11.20
2019-05-15T21:42:00.487Z,11.30
2019-05-15T21:44:30.491Z,11.30
2019-05-15T21:47:00.463Z,11.30
2019-05-15T21:49:30.494Z,11.30
2019-05-15T21:52:00.700Z,11.30
2019-05-15T21:54:30.734Z,11.30
2019-05-15T21:57:18.896Z,11.30
2019-05-15T21:59:32.473Z,11.30
2019-05-15T22:02:02.563Z,11.30
2019-05-15T22:04:32.503Z,11.40
2019-05-15T22:07:02.480Z,11.40
2019-05-15T22:09:32.705Z,11.30
2019-05-15T22:12:03.109Z,11.20
2019-05-15T22:14:33.163Z,11.30
2019-05-15T22:20:25.241Z,11.30
2019-05-15T22:22:55.493Z,11.20
2019-05-15T22:25:28.037Z,11.30
2019-05-15T22:27:58.071Z,11.40
2019-05-15T22:30:30.353Z,11.40
2019-05-15T22:33:00.215Z,11.40
2019-05-15T22:35:30.509Z,11.60
2019-05-15T22:38:00.714Z,11.40
2019-05-15T22:40:30.880Z,11.30
2019-05-15T22:43:01.255Z,11.00
2019-05-15T22:45:31.606Z,10.80
2019-05-15T22:48:01.928Z,10.70
2019-05-15T22:50:32.229Z,10.70
2019-05-15T22:53:02.511Z,10.70
2019-05-15T22:55:32.823Z,10.90
2019-05-15T22:58:04.289Z,10.80
2019-05-15T23:00:34.578Z,10.70
2019-05-15T23:03:05.066Z,10.80
2019-05-15T23:05:35.399Z,10.70
2019-05-15T23:08:05.549Z,10.80
2019-05-15T23:10:37.902Z,10.80
2019-05-15T23:13:07.717Z,10.90
2019-05-15T23:15:38.596Z,10.90
2019-05-15T23:18:09.083Z,11.00
2019-05-15T23:20:43.673Z,11.00
2019-05-15T23:23:14.145Z,11.10
2019-05-15T23:25:44.436Z,11.10
2019-05-15T23:28:14.880Z,11.20
2019-05-15T23:30:45.176Z,11.20
2019-05-15T23:33:15.429Z,11.30
2019-05-15T23:35:48.366Z,11.20
2019-05-15T23:38:17.815Z,11.30
2019-05-15T23:40:48.437Z,11.30
2019-05-15T23:43:19.064Z,11.30
2019-05-15T23:45:49.328Z,11.30
2019-05-15T23:48:19.779Z,11.30
2019-05-15T23:50:49.998Z,11.10
2019-05-15T23:53:20.300Z,11.10
2019-05-15T23:55:50.444Z,11.00
2019-05-15T23:58:20.756Z,11.00
